sensor_id;sensor_type;location;lat;lon;timestamp;P1;durP1;ratioP1;P2;durP2;ratioP2
15383;SDS011;7790;53.022;12.968;2024-03-23T00:54:02;1.70;;;1.07;;
15383;SDS011;7790;53.022;12.968;2024-03-23T00:58:04;1.90;;;1.20;;
15383;SDS011;7790;53.022;12.968;2024-03-23T01:02:04;0.80;;;0.80;;
15383;SDS011;7790;53.022;12.968;2024-03-23T01:06:05;1.13;;;0.93;;
15383;SDS011;7790;53.022;12.968;2024-03-23T01:10:06;1.37;;;0.90;;
15383;SDS011;7790;53.022;12.968;2024-03-23T01:14:07;1.23;;;0.90;;
15383;SDS011;7790;53.022;12.968;2024-03-23T01:18:08;1.20;;;1.03;;
15383;SDS011;7790;53.022;12.968;2024-03-23T01:22:09;2.83;;;1.00;;
15383;SDS011;7790;53.022;12.968;2024-03-23T01:26:10;1.27;;;1.03;;
15383;SDS011;7790;53.022;12.968;2024-03-23T01:30:11;1.17;;;0.97;;
15383;SDS011;7790;53.022;12.968;2024-03-23T01:34:14;1.70;;;1.00;;
15383;SDS011;7790;53.022;12.968;2024-03-23T01:38:14;1.53;;;1.00;;
15383;SDS011;7790;53.022;12.968;2024-03-23T01:42:15;1.03;;;0.80;;
15383;SDS011;7790;53.022;12.968;2024-03-23T01:46:16;1.03;;;0.83;;
15383;SDS011;7790;53.022;12.968;2024-03-23T01:50:17;1.00;;;0.90;;
15383;SDS011;7790;53.022;12.968;2024-03-23T01:54:18;1.70;;;1.03;;
15383;SDS011;7790;53.022;12.968;2024-03-23T01:58:19;1.10;;;0.90;;
15383;SDS011;7790;53.022;12.968;2024-03-23T02:02:20;1.53;;;0.97;;
15383;SDS011;7790;53.022;12.968;2024-03-23T02:06:21;1.10;;;0.97;;
15383;SDS011;7790;53.022;12.968;2024-03-23T02:10:22;1.60;;;1.13;;
15383;SDS011;7790;53.022;12.968;2024-03-23T02:14:23;1.53;;;0.90;;
15383;SDS011;7790;53.022;12.968;2024-03-23T02:18:24;1.30;;;0.83;;
15383;SDS011;7790;53.022;12.968;2024-03-23T02:22:25;1.07;;;0.97;;
15383;SDS011;7790;53.022;12.968;2024-03-23T02:26:34;0.90;;;0.90;;
15383;SDS011;7790;53.022;12.968;2024-03-23T02:30:35;1.37;;;1.03;;
15383;SDS011;7790;53.022;12.968;2024-03-23T02:34:37;0.83;;;0.83;;
15383;SDS011;7790;53.022;12.968;2024-03-23T02:38:37;0.80;;;0.70;;
15383;SDS011;7790;53.022;12.968;2024-03-23T02:42:38;0.80;;;0.70;;
15383;SDS011;7790;53.022;12.968;2024-03-23T02:46:39;0.73;;;0.70;;
15383;SDS011;7790;53.022;12.968;2024-03-23T02:50:40;2.37;;;1.00;;
15383;SDS011;7790;53.022;12.968;2024-03-23T02:54:41;0.77;;;0.77;;
15383;SDS011;7790;53.022;12.968;2024-03-23T02:58:45;1.07;;;0.90;;
15383;SDS011;7790;53.022;12.968;2024-03-23T03:02:45;0.93;;;0.80;;
15383;SDS011;7790;53.022;12.968;2024-03-23T03:06:46;0.97;;;0.80;;
15383;SDS011;7790;53.022;12.968;2024-03-23T03:10:48;1.80;;;0.93;;
15383;SDS011;7790;53.022;12.968;2024-03-23T03:14:48;0.80;;;0.70;;
15383;SDS011;7790;53.022;12.968;2024-03-23T03:18:49;1.00;;;0.70;;
15383;SDS011;7790;53.022;12.968;2024-03-23T03:22:50;1.23;;;0.80;;
15383;SDS011;7790;53.022;12.968;2024-03-23T03:26:53;1.00;;;0.80;;
15383;SDS011;7790;53.022;12.968;2024-03-23T03:30:54;1.30;;;1.00;;
15383;SDS011;7790;53.022;12.968;2024-03-23T03:34:55;0.80;;;0.80;;
15383;SDS011;7790;53.022;12.968;2024-03-23T03:38:55;0.90;;;0.80;;
15383;SDS011;7790;53.022;12.968;2024-03-23T03:42:56;1.10;;;0.90;;
15383;SDS011;7790;53.022;12.968;2024-03-23T03:46:57;1.20;;;0.80;;
15383;SDS011;7790;53.022;12.968;2024-03-23T03:50:58;1.30;;;0.70;;
15383;SDS011;7790;53.022;12.968;2024-03-23T03:55:02;1.23;;;0.90;;
15383;SDS011;7790;53.022;12.968;2024-03-23T03:59:03;2.10;;;1.00;;
15383;SDS011;7790;53.022;12.968;2024-03-23T04:03:04;1.17;;;0.60;;
15383;SDS011;7790;53.022;12.968;2024-03-23T04:07:05;1.70;;;0.90;;
15383;SDS011;7790;53.022;12.968;2024-03-23T04:11:06;1.33;;;0.90;;
15383;SDS011;7790;53.022;12.968;2024-03-23T04:15:07;0.90;;;0.63;;
15383;SDS011;7790;53.022;12.968;2024-03-23T04:19:08;1.20;;;0.80;;
15383;SDS011;7790;53.022;12.968;2024-03-23T04:23:09;1.17;;;0.80;;
15383;SDS011;7790;53.022;12.968;2024-03-23T04:27:10;1.77;;;1.00;;
15383;SDS011;7790;53.022;12.968;2024-03-23T04:31:11;0.93;;;0.60;;
15383;SDS011;7790;53.022;12.968;2024-03-23T04:35:12;2.10;;;0.90;;
15383;SDS011;7790;53.022;12.968;2024-03-23T04:39:13;1.63;;;0.90;;
15383;SDS011;7790;53.022;12.968;2024-03-23T04:43:14;0.70;;;0.63;;
15383;SDS011;7790;53.022;12.968;2024-03-23T04:47:15;0.90;;;0.83;;
15383;SDS011;7790;53.022;12.968;2024-03-23T04:51:23;1.53;;;0.90;;
15383;SDS011;7790;53.022;12.968;2024-03-23T04:55:24;1.30;;;1.10;;
15383;SDS011;7790;53.022;12.968;2024-03-23T04:59:25;0.70;;;0.50;;
15383;SDS011;7790;53.022;12.968;2024-03-23T05:03:26;1.03;;;0.90;;
15383;SDS011;7790;53.022;12.968;2024-03-23T05:07:26;0.80;;;0.80;;
15383;SDS011;7790;53.022;12.968;2024-03-23T05:11:27;0.80;;;0.80;;
15383;SDS011;7790;53.022;12.968;2024-03-23T05:15:28;0.90;;;0.73;;
15383;SDS011;7790;53.022;12.968;2024-03-23T05:19:30;0.80;;;0.80;;
15383;SDS011;7790;53.022;12.968;2024-03-23T05:23:31;0.93;;;0.80;;
15383;SDS011;7790;53.022;12.968;2024-03-23T05:27:32;1.33;;;0.90;;
15383;SDS011;7790;53.022;12.968;2024-03-23T05:31:34;1.13;;;0.73;;
15383;SDS011;7790;53.022;12.968;2024-03-23T05:35:34;0.90;;;0.90;;
15383;SDS011;7790;53.022;12.968;2024-03-23T05:39:35;1.17;;;1.00;;
15383;SDS011;7790;53.022;12.968;2024-03-23T05:43:36;1.50;;;1.10;;
15383;SDS011;7790;53.022;12.968;2024-03-23T05:47:37;1.07;;;0.93;;
15383;SDS011;7790;53.022;12.968;2024-03-23T05:51:38;1.13;;;1.00;;
15383;SDS011;7790;53.022;12.968;2024-03-23T05:55:39;1.07;;;1.00;;
15383;SDS011;7790;53.022;12.968;2024-03-23T05:59:40;1.13;;;1.03;;
15383;SDS011;7790;53.022;12.968;2024-03-23T06:03:40;1.70;;;1.10;;
15383;SDS011;7790;53.022;12.968;2024-03-23T06:07:41;1.37;;;1.10;;
15383;SDS011;7790;53.022;12.968;2024-03-23T06:11:42;1.27;;;1.17;;
15383;SDS011;7790;53.022;12.968;2024-03-23T06:15:43;1.03;;;1.00;;
15383;SDS011;7790;53.022;12.968;2024-03-23T06:19:45;1.23;;;1.13;;
15383;SDS011;7790;53.022;12.968;2024-03-23T06:23:47;1.00;;;1.00;;
15383;SDS011;7790;53.022;12.968;2024-03-23T06:27:51;1.17;;;0.97;;
15383;SDS011;7790;53.022;12.968;2024-03-23T06:31:52;1.00;;;0.90;;
15383;SDS011;7790;53.022;12.968;2024-03-23T06:35:55;1.20;;;1.03;;
15383;SDS011;7790;53.022;12.968;2024-03-23T06:39:55;1.17;;;0.90;;
15383;SDS011;7790;53.022;12.968;2024-03-23T06:43:56;1.00;;;0.90;;
15383;SDS011;7790;53.022;12.968;2024-03-23T06:47:57;1.63;;;1.10;;
15383;SDS011;7790;53.022;12.968;2024-03-23T06:51:58;2.67;;;1.10;;
15383;SDS011;7790;53.022;12.968;2024-03-23T06:55:59;2.03;;;1.07;;
15383;SDS011;7790;53.022;12.968;2024-03-23T07:00:01;2.43;;;1.20;;
15383;SDS011;7790;53.022;12.968;2024-03-23T07:04:03;1.80;;;1.10;;
15383;SDS011;7790;53.022;12.968;2024-03-23T07:08:04;3.63;;;1.30;;
15383;SDS011;7790;53.022;12.968;2024-03-23T07:12:06;5.63;;;1.10;;
15383;SDS011;7790;53.022;12.968;2024-03-23T07:16:07;8.00;;;1.60;;
15383;SDS011;7790;53.022;12.968;2024-03-23T07:20:08;2.07;;;1.20;;
15383;SDS011;7790;53.022;12.968;2024-03-23T07:24:11;1.73;;;1.10;;
15383;SDS011;7790;53.022;12.968;2024-03-23T07:28:12;2.20;;;1.30;;
15383;SDS011;7790;53.022;12.968;2024-03-23T07:32:12;1.93;;;1.00;;
15383;SDS011;7790;53.022;12.968;2024-03-23T07:36:13;1.10;;;0.97;;
15383;SDS011;7790;53.022;12.968;2024-03-23T07:40:14;3.07;;;1.00;;
15383;SDS011;7790;53.022;12.968;2024-03-23T07:44:15;3.03;;;1.20;;
15383;SDS011;7790;53.022;12.968;2024-03-23T07:48:16;5.10;;;1.33;;
15383;SDS011;7790;53.022;12.968;2024-03-23T07:52:16;5.37;;;1.37;;
15383;SDS011;7790;53.022;12.968;2024-03-23T07:56:17;3.03;;;1.50;;
15383;SDS011;7790;53.022;12.968;2024-03-23T08:00:23;5.57;;;2.00;;
15383;SDS011;7790;53.022;12.968;2024-03-23T08:04:23;6.20;;;1.50;;
15383;SDS011;7790;53.022;12.968;2024-03-23T08:08:25;2.17;;;1.37;;
15383;SDS011;7790;53.022;12.968;2024-03-23T08:12:26;3.50;;;1.53;;
15383;SDS011;7790;53.022;12.968;2024-03-23T08:16:26;4.07;;;1.30;;
15383;SDS011;7790;53.022;12.968;2024-03-23T08:20:28;3.23;;;1.30;;
15383;SDS011;7790;53.022;12.968;2024-03-23T08:24:28;6.00;;;3.13;;
15383;SDS011;7790;53.022;12.968;2024-03-23T08:28:30;8.90;;;3.43;;
15383;SDS011;7790;53.022;12.968;2024-03-23T08:32:31;4.30;;;2.87;;
15383;SDS011;7790;53.022;12.968;2024-03-23T08:36:32;4.57;;;2.90;;
15383;SDS011;7790;53.022;12.968;2024-03-23T08:40:33;4.37;;;2.90;;
15383;SDS011;7790;53.022;12.968;2024-03-23T08:44:34;5.53;;;3.20;;
15383;SDS011;7790;53.022;12.968;2024-03-23T08:48:36;5.13;;;2.80;;
15383;SDS011;7790;53.022;12.968;2024-03-23T08:52:38;3.93;;;2.80;;
15383;SDS011;7790;53.022;12.968;2024-03-23T08:56:39;2.50;;;2.30;;
15383;SDS011;7790;53.022;12.968;2024-03-23T09:00:40;4.17;;;2.43;;
15383;SDS011;7790;53.022;12.968;2024-03-23T09:04:40;4.17;;;2.53;;
15383;SDS011;7790;53.022;12.968;2024-03-23T09:08:41;3.37;;;2.33;;
15383;SDS011;7790;53.022;12.968;2024-03-23T09:12:42;3.30;;;2.20;;
15383;SDS011;7790;53.022;12.968;2024-03-23T09:16:43;3.63;;;2.20;;
15383;SDS011;7790;53.022;12.968;2024-03-23T09:20:44;2.80;;;2.13;;
15383;SDS011;7790;53.022;12.968;2024-03-23T09:24:45;3.67;;;2.63;;
15383;SDS011;7790;53.022;12.968;2024-03-23T09:28:48;3.43;;;2.00;;
15383;SDS011;7790;53.022;12.968;2024-03-23T09:32:49;4.87;;;2.43;;
15383;SDS011;7790;53.022;12.968;2024-03-23T09:36:52;6.30;;;2.57;;
15383;SDS011;7790;53.022;12.968;2024-03-23T09:40:53;6.23;;;2.40;;
15383;SDS011;7790;53.022;12.968;2024-03-23T09:44:54;6.97;;;2.43;;
15383;SDS011;7790;53.022;12.968;2024-03-23T09:48:57;5.43;;;2.63;;
15383;SDS011;7790;53.022;12.968;2024-03-23T09:52:58;7.73;;;2.43;;
15383;SDS011;7790;53.022;12.968;2024-03-23T09:56:59;8.10;;;2.83;;
15383;SDS011;7790;53.022;12.968;2024-03-23T10:01:01;8.23;;;2.50;;
15383;SDS011;7790;53.022;12.968;2024-03-23T10:05:03;5.37;;;2.30;;
15383;SDS011;7790;53.022;12.968;2024-03-23T10:09:14;5.87;;;2.43;;
15383;SDS011;7790;53.022;12.968;2024-03-23T10:13:25;8.17;;;2.50;;
15383;SDS011;7790;53.022;12.968;2024-03-23T10:17:32;7.87;;;2.43;;
15383;SDS011;7790;53.022;12.968;2024-03-23T10:21:32;4.67;;;2.47;;
15383;SDS011;7790;53.022;12.968;2024-03-23T10:25:33;4.17;;;2.10;;
15383;SDS011;7790;53.022;12.968;2024-03-23T10:29:34;4.07;;;2.23;;
15383;SDS011;7790;53.022;12.968;2024-03-23T10:33:35;6.87;;;2.33;;
15383;SDS011;7790;53.022;12.968;2024-03-23T10:37:36;3.97;;;2.07;;
15383;SDS011;7790;53.022;12.968;2024-03-23T10:41:37;2.93;;;1.87;;
15383;SDS011;7790;53.022;12.968;2024-03-23T10:45:39;3.53;;;1.87;;
15383;SDS011;7790;53.022;12.968;2024-03-23T10:49:40;2.77;;;1.97;;
15383;SDS011;7790;53.022;12.968;2024-03-23T10:53:41;3.33;;;1.80;;
15383;SDS011;7790;53.022;12.968;2024-03-23T10:57:44;3.20;;;1.83;;
15383;SDS011;7790;53.022;12.968;2024-03-23T11:01:59;2.33;;;1.70;;
15383;SDS011;7790;53.022;12.968;2024-03-23T11:06:00;3.60;;;1.73;;
15383;SDS011;7790;53.022;12.968;2024-03-23T11:10:03;1.40;;;1.30;;
15383;SDS011;7790;53.022;12.968;2024-03-23T11:14:27;3.33;;;1.90;;
15383;SDS011;7790;53.022;12.968;2024-03-23T11:18:33;3.37;;;1.70;;
15383;SDS011;7790;53.022;12.968;2024-03-23T11:26:43;2.97;;;1.80;;
15383;SDS011;7790;53.022;12.968;2024-03-23T11:30:44;4.03;;;1.80;;
15383;SDS011;7790;53.022;12.968;2024-03-23T11:34:45;3.97;;;2.00;;
15383;SDS011;7790;53.022;12.968;2024-03-23T11:38:46;3.73;;;1.60;;
15383;SDS011;7790;53.022;12.968;2024-03-23T11:42:46;2.80;;;1.70;;
15383;SDS011;7790;53.022;12.968;2024-03-23T11:47:05;3.03;;;2.10;;
15383;SDS011;7790;53.022;12.968;2024-03-23T11:51:08;12.37;;;2.60;;
15383;SDS011;7790;53.022;12.968;2024-03-23T11:55:09;6.13;;;2.60;;
15383;SDS011;7790;53.022;12.968;2024-03-23T11:59:10;6.83;;;2.63;;
15383;SDS011;7790;53.022;12.968;2024-03-23T12:03:14;5.73;;;2.50;;
15383;SDS011;7790;53.022;12.968;2024-03-23T12:07:20;6.03;;;2.43;;
15383;SDS011;7790;53.022;12.968;2024-03-23T12:11:22;9.10;;;2.87;;
15383;SDS011;7790;53.022;12.968;2024-03-23T12:15:24;4.40;;;2.23;;
15383;SDS011;7790;53.022;12.968;2024-03-23T12:19:25;11.33;;;3.33;;
15383;SDS011;7790;53.022;12.968;2024-03-23T12:23:26;5.80;;;2.83;;
15383;SDS011;7790;53.022;12.968;2024-03-23T12:27:27;7.07;;;2.60;;
15383;SDS011;7790;53.022;12.968;2024-03-23T12:31:28;10.60;;;3.40;;
15383;SDS011;7790;53.022;12.968;2024-03-23T12:35:28;8.60;;;3.40;;
15383;SDS011;7790;53.022;12.968;2024-03-23T12:39:29;10.03;;;3.03;;
15383;SDS011;7790;53.022;12.968;2024-03-23T12:43:30;13.10;;;5.13;;
15383;SDS011;7790;53.022;12.968;2024-03-23T12:47:31;10.27;;;4.00;;
15383;SDS011;7790;53.022;12.968;2024-03-23T12:51:32;8.80;;;3.07;;
15383;SDS011;7790;53.022;12.968;2024-03-23T12:55:36;9.27;;;2.83;;
15383;SDS011;7790;53.022;12.968;2024-03-23T12:59:37;9.27;;;3.53;;
15383;SDS011;7790;53.022;12.968;2024-03-23T13:03:38;9.13;;;2.60;;
15383;SDS011;7790;53.022;12.968;2024-03-23T13:07:41;10.53;;;3.03;;
15383;SDS011;7790;53.022;12.968;2024-03-23T13:11:41;8.63;;;3.07;;
15383;SDS011;7790;53.022;12.968;2024-03-23T13:15:42;11.17;;;3.27;;
15383;SDS011;7790;53.022;12.968;2024-03-23T13:19:52;10.50;;;3.07;;
15383;SDS011;7790;53.022;12.968;2024-03-23T13:23:54;5.93;;;2.40;;
15383;SDS011;7790;53.022;12.968;2024-03-23T13:27:55;7.27;;;2.50;;
15383;SDS011;7790;53.022;12.968;2024-03-23T13:31:56;7.53;;;2.67;;
15383;SDS011;7790;53.022;12.968;2024-03-23T13:35:57;7.70;;;2.47;;
15383;SDS011;7790;53.022;12.968;2024-03-23T13:39:58;6.07;;;2.43;;
15383;SDS011;7790;53.022;12.968;2024-03-23T13:43:59;5.00;;;2.17;;
15383;SDS011;7790;53.022;12.968;2024-03-23T13:47:59;8.10;;;2.50;;
15383;SDS011;7790;53.022;12.968;2024-03-23T13:52:00;7.03;;;2.00;;
15383;SDS011;7790;53.022;12.968;2024-03-23T13:56:01;7.50;;;2.10;;
15383;SDS011;7790;53.022;12.968;2024-03-23T14:00:03;4.93;;;2.00;;
15383;SDS011;7790;53.022;12.968;2024-03-23T14:04:13;10.80;;;2.60;;
15383;SDS011;7790;53.022;12.968;2024-03-23T14:08:16;4.93;;;1.63;;
15383;SDS011;7790;53.022;12.968;2024-03-23T14:12:17;4.13;;;2.03;;
15383;SDS011;7790;53.022;12.968;2024-03-23T14:16:18;4.57;;;1.80;;
15383;SDS011;7790;53.022;12.968;2024-03-23T14:20:19;4.40;;;1.77;;
15383;SDS011;7790;53.022;12.968;2024-03-23T14:24:20;6.40;;;1.77;;
15383;SDS011;7790;53.022;12.968;2024-03-23T14:28:21;10.13;;;2.30;;
15383;SDS011;7790;53.022;12.968;2024-03-23T14:32:23;5.97;;;1.83;;
15383;SDS011;7790;53.022;12.968;2024-03-23T14:36:23;9.63;;;2.20;;
15383;SDS011;7790;53.022;12.968;2024-03-23T14:40:25;12.47;;;2.87;;
15383;SDS011;7790;53.022;12.968;2024-03-23T14:44:28;13.67;;;2.60;;
15383;SDS011;7790;53.022;12.968;2024-03-23T14:48:29;14.70;;;2.33;;
15383;SDS011;7790;53.022;12.968;2024-03-23T14:52:30;8.03;;;2.00;;
15383;SDS011;7790;53.022;12.968;2024-03-23T14:56:31;15.97;;;2.50;;
15383;SDS011;7790;53.022;12.968;2024-03-23T15:00:32;14.60;;;2.50;;
15383;SDS011;7790;53.022;12.968;2024-03-23T15:04:33;16.23;;;3.13;;
15383;SDS011;7790;53.022;12.968;2024-03-23T15:08:34;13.07;;;3.10;;
15383;SDS011;7790;53.022;12.968;2024-03-23T15:12:36;17.97;;;3.80;;
15383;SDS011;7790;53.022;12.968;2024-03-23T15:16:37;13.90;;;3.37;;
15383;SDS011;7790;53.022;12.968;2024-03-23T15:20:38;13.40;;;3.13;;
15383;SDS011;7790;53.022;12.968;2024-03-23T15:24:39;13.07;;;2.93;;
15383;SDS011;7790;53.022;12.968;2024-03-23T15:28:40;12.83;;;3.13;;
15383;SDS011;7790;53.022;12.968;2024-03-23T15:32:59;15.83;;;2.97;;
15383;SDS011;7790;53.022;12.968;2024-03-23T15:37:00;7.53;;;2.60;;
15383;SDS011;7790;53.022;12.968;2024-03-23T15:41:00;12.13;;;2.77;;
15383;SDS011;7790;53.022;12.968;2024-03-23T15:45:02;8.90;;;2.20;;
15383;SDS011;7790;53.022;12.968;2024-03-23T15:49:03;7.43;;;2.60;;
15383;SDS011;7790;53.022;12.968;2024-03-23T15:53:04;10.57;;;2.43;;
15383;SDS011;7790;53.022;12.968;2024-03-23T15:57:05;6.17;;;2.07;;
15383;SDS011;7790;53.022;12.968;2024-03-23T16:01:07;8.40;;;2.10;;
15383;SDS011;7790;53.022;12.968;2024-03-23T16:05:09;9.70;;;2.20;;
15383;SDS011;7790;53.022;12.968;2024-03-23T16:09:11;7.13;;;2.33;;
15383;SDS011;7790;53.022;12.968;2024-03-23T16:13:12;4.83;;;1.80;;
15383;SDS011;7790;53.022;12.968;2024-03-23T16:17:13;6.53;;;2.07;;
15383;SDS011;7790;53.022;12.968;2024-03-23T16:21:14;4.47;;;1.70;;
15383;SDS011;7790;53.022;12.968;2024-03-23T16:25:17;11.40;;;2.30;;
15383;SDS011;7790;53.022;12.968;2024-03-23T16:29:17;8.80;;;1.90;;
15383;SDS011;7790;53.022;12.968;2024-03-23T16:33:18;7.63;;;1.90;;
15383;SDS011;7790;53.022;12.968;2024-03-23T16:37:19;4.77;;;2.07;;
15383;SDS011;7790;53.022;12.968;2024-03-23T16:41:20;4.07;;;1.70;;
15383;SDS011;7790;53.022;12.968;2024-03-23T16:45:21;6.77;;;1.60;;
15383;SDS011;7790;53.022;12.968;2024-03-23T16:49:21;4.13;;;1.90;;
15383;SDS011;7790;53.022;12.968;2024-03-23T16:53:22;5.47;;;1.30;;
15383;SDS011;7790;53.022;12.968;2024-03-23T16:57:25;5.00;;;1.60;;
15383;SDS011;7790;53.022;12.968;2024-03-23T17:01:26;3.23;;;1.30;;
15383;SDS011;7790;53.022;12.968;2024-03-23T17:05:28;3.50;;;1.53;;
15383;SDS011;7790;53.022;12.968;2024-03-23T17:09:29;5.77;;;1.90;;
15383;SDS011;7790;53.022;12.968;2024-03-23T17:13:31;1.37;;;1.10;;
15383;SDS011;7790;53.022;12.968;2024-03-23T17:17:32;5.33;;;1.63;;
15383;SDS011;7790;53.022;12.968;2024-03-23T17:21:36;5.80;;;1.77;;
15383;SDS011;7790;53.022;12.968;2024-03-23T17:25:40;6.70;;;1.80;;
15383;SDS011;7790;53.022;12.968;2024-03-23T17:29:41;4.00;;;1.50;;
15383;SDS011;7790;53.022;12.968;2024-03-23T17:33:41;9.33;;;1.97;;
15383;SDS011;7790;53.022;12.968;2024-03-23T17:37:42;5.40;;;1.30;;
15383;SDS011;7790;53.022;12.968;2024-03-23T17:41:44;9.63;;;1.83;;
15383;SDS011;7790;53.022;12.968;2024-03-23T17:45:45;9.23;;;1.77;;
15383;SDS011;7790;53.022;12.968;2024-03-23T17:49:46;6.90;;;1.70;;
15383;SDS011;7790;53.022;12.968;2024-03-23T17:53:46;9.20;;;1.37;;
15383;SDS011;7790;53.022;12.968;2024-03-23T17:57:47;9.40;;;1.77;;
15383;SDS011;7790;53.022;12.968;2024-03-23T18:01:49;8.53;;;1.53;;
15383;SDS011;7790;53.022;12.968;2024-03-23T18:05:49;7.60;;;1.67;;
15383;SDS011;7790;53.022;12.968;2024-03-23T18:09:50;8.87;;;1.73;;
15383;SDS011;7790;53.022;12.968;2024-03-23T18:13:51;5.83;;;1.40;;
15383;SDS011;7790;53.022;12.968;2024-03-23T18:17:52;6.40;;;1.53;;
15383;SDS011;7790;53.022;12.968;2024-03-23T18:21:53;4.70;;;1.27;;
15383;SDS011;7790;53.022;12.968;2024-03-23T18:25:54;5.10;;;1.43;;
15383;SDS011;7790;53.022;12.968;2024-03-23T18:29:57;8.87;;;1.53;;
15383;SDS011;7790;53.022;12.968;2024-03-23T18:33:58;7.53;;;1.63;;
15383;SDS011;7790;53.022;12.968;2024-03-23T18:38:01;5.13;;;1.63;;
15383;SDS011;7790;53.022;12.968;2024-03-23T18:42:02;3.30;;;1.47;;
15383;SDS011;7790;53.022;12.968;2024-03-23T18:46:03;4.80;;;1.80;;
15383;SDS011;7790;53.022;12.968;2024-03-23T18:50:04;7.67;;;1.83;;
15383;SDS011;7790;53.022;12.968;2024-03-23T18:54:05;6.57;;;1.87;;
15383;SDS011;7790;53.022;12.968;2024-03-23T18:58:06;6.53;;;1.70;;
15383;SDS011;7790;53.022;12.968;2024-03-23T19:02:07;5.67;;;1.73;;
15383;SDS011;7790;53.022;12.968;2024-03-23T19:06:08;5.57;;;2.23;;
15383;SDS011;7790;53.022;12.968;2024-03-23T19:10:09;8.93;;;3.00;;
15383;SDS011;7790;53.022;12.968;2024-03-23T19:14:09;5.53;;;2.83;;
15383;SDS011;7790;53.022;12.968;2024-03-23T19:18:10;16.23;;;9.80;;
15383;SDS011;7790;53.022;12.968;2024-03-23T19:22:11;18.30;;;9.90;;
15383;SDS011;7790;53.022;12.968;2024-03-23T19:26:12;14.27;;;7.73;;
15383;SDS011;7790;53.022;12.968;2024-03-23T19:30:13;13.40;;;6.73;;
15383;SDS011;7790;53.022;12.968;2024-03-23T19:34:15;9.67;;;6.20;;
15383;SDS011;7790;53.022;12.968;2024-03-23T19:38:16;9.97;;;6.33;;
15383;SDS011;7790;53.022;12.968;2024-03-23T19:42:16;7.43;;;5.97;;
15383;SDS011;7790;53.022;12.968;2024-03-23T19:46:19;9.23;;;4.93;;
15383;SDS011;7790;53.022;12.968;2024-03-23T19:50:21;9.70;;;5.43;;
15383;SDS011;7790;53.022;12.968;2024-03-23T19:54:22;7.13;;;4.70;;
15383;SDS011;7790;53.022;12.968;2024-03-23T19:58:23;4.53;;;3.87;;
15383;SDS011;7790;53.022;12.968;2024-03-23T20:02:24;6.53;;;3.80;;
15383;SDS011;7790;53.022;12.968;2024-03-23T20:06:24;6.63;;;3.77;;
15383;SDS011;7790;53.022;12.968;2024-03-23T20:10:25;4.60;;;3.43;;
15383;SDS011;7790;53.022;12.968;2024-03-23T20:14:26;4.03;;;3.30;;
15383;SDS011;7790;53.022;12.968;2024-03-23T20:18:30;4.20;;;3.03;;
15383;SDS011;7790;53.022;12.968;2024-03-23T20:22:31;18.83;;;3.57;;
15383;SDS011;7790;53.022;12.968;2024-03-23T20:26:32;7.30;;;3.37;;
15383;SDS011;7790;53.022;12.968;2024-03-23T20:30:33;7.77;;;2.70;;
15383;SDS011;7790;53.022;12.968;2024-03-23T20:34:34;7.63;;;3.23;;
15383;SDS011;7790;53.022;12.968;2024-03-23T20:38:35;5.40;;;2.53;;
15383;SDS011;7790;53.022;12.968;2024-03-23T20:42:35;3.77;;;2.60;;
15383;SDS011;7790;53.022;12.968;2024-03-23T20:46:36;2.50;;;2.30;;
15383;SDS011;7790;53.022;12.968;2024-03-23T20:50:38;5.23;;;2.40;;
15383;SDS011;7790;53.022;12.968;2024-03-23T20:54:39;7.27;;;2.30;;
15383;SDS011;7790;53.022;12.968;2024-03-23T20:58:40;3.37;;;2.03;;
15383;SDS011;7790;53.022;12.968;2024-03-23T21:02:41;5.23;;;2.20;;
15383;SDS011;7790;53.022;12.968;2024-03-23T21:06:42;5.13;;;2.00;;
15383;SDS011;7790;53.022;12.968;2024-03-23T21:10:48;6.07;;;1.90;;
15383;SDS011;7790;53.022;12.968;2024-03-23T21:14:52;4.57;;;2.00;;
15383;SDS011;7790;53.022;12.968;2024-03-23T21:18:53;3.33;;;1.87;;
15383;SDS011;7790;53.022;12.968;2024-03-23T21:22:56;2.53;;;1.70;;
15383;SDS011;7790;53.022;12.968;2024-03-23T21:26:57;5.57;;;1.77;;
15383;SDS011;7790;53.022;12.968;2024-03-23T21:30:58;3.50;;;1.87;;
15383;SDS011;7790;53.022;12.968;2024-03-23T21:34:59;3.37;;;1.90;;
15383;SDS011;7790;53.022;12.968;2024-03-23T21:39:00;1.53;;;1.37;;
15383;SDS011;7790;53.022;12.968;2024-03-23T21:43:04;3.27;;;1.63;;
15383;SDS011;7790;53.022;12.968;2024-03-23T21:47:07;1.83;;;1.40;;
15383;SDS011;7790;53.022;12.968;2024-03-23T21:51:08;1.53;;;1.30;;
15383;SDS011;7790;53.022;12.968;2024-03-23T21:55:08;2.13;;;1.37;;
15383;SDS011;7790;53.022;12.968;2024-03-23T21:59:12;2.33;;;1.60;;
15383;SDS011;7790;53.022;12.968;2024-03-23T22:03:13;2.13;;;1.37;;
15383;SDS011;7790;53.022;12.968;2024-03-23T22:07:14;1.90;;;1.20;;
15383;SDS011;7790;53.022;12.968;2024-03-23T22:11:16;1.50;;;1.17;;
15383;SDS011;7790;53.022;12.968;2024-03-23T22:15:16;1.60;;;1.10;;
15383;SDS011;7790;53.022;12.968;2024-03-23T22:19:18;1.50;;;1.20;;
15383;SDS011;7790;53.022;12.968;2024-03-23T22:23:19;1.37;;;1.03;;
15383;SDS011;7790;53.022;12.968;2024-03-23T22:27:20;1.33;;;1.17;;
15383;SDS011;7790;53.022;12.968;2024-03-23T22:31:21;1.50;;;1.23;;
15383;SDS011;7790;53.022;12.968;2024-03-23T22:35:22;1.53;;;1.10;;
15383;SDS011;7790;53.022;12.968;2024-03-23T22:39:23;1.10;;;1.00;;
15383;SDS011;7790;53.022;12.968;2024-03-23T22:43:24;0.80;;;0.80;;
15383;SDS011;7790;53.022;12.968;2024-03-23T22:47:25;1.37;;;1.03;;
15383;SDS011;7790;53.022;12.968;2024-03-23T22:51:26;1.60;;;1.07;;
15383;SDS011;7790;53.022;12.968;2024-03-23T22:55:28;1.20;;;0.97;;
15383;SDS011;7790;53.022;12.968;2024-03-23T22:59:29;1.33;;;0.90;;
15383;SDS011;7790;53.022;12.968;2024-03-23T23:03:30;1.37;;;1.17;;
15383;SDS011;7790;53.022;12.968;2024-03-23T23:07:31;1.10;;;1.00;;
15383;SDS011;7790;53.022;12.968;2024-03-23T23:11:32;1.60;;;1.10;;
15383;SDS011;7790;53.022;12.968;2024-03-23T23:15:33;0.80;;;0.70;;
15383;SDS011;7790;53.022;12.968;2024-03-23T23:19:33;1.57;;;0.70;;
15383;SDS011;7790;53.022;12.968;2024-03-23T23:23:37;1.20;;;0.80;;
15383;SDS011;7790;53.022;12.968;2024-03-23T23:27:38;0.90;;;0.73;;
15383;SDS011;7790;53.022;12.968;2024-03-23T23:31:40;0.63;;;0.60;;
15383;SDS011;7790;53.022;12.968;2024-03-23T23:35:42;0.70;;;0.70;;
15383;SDS011;7790;53.022;12.968;2024-03-23T23:39:43;1.40;;;0.90;;
15383;SDS011;7790;53.022;12.968;2024-03-23T23:43:53;1.60;;;1.00;;
15383;SDS011;7790;53.022;12.968;2024-03-23T23:47:55;1.33;;;0.80;;
15383;SDS011;7790;53.022;12.968;2024-03-23T23:51:56;0.60;;;0.60;;
15383;SDS011;7790;53.022;12.968;2024-03-23T23:55:56;1.37;;;0.70;;
15383;SDS011;7790;53.022;12.968;2024-03-23T23:59:58;1.03;;;0.80;;
